Nearby METAR Reports

 

KSJC - San Jose, California, USA
Distance from station: NE 9mi, 14km
Updated: Sat, 18-Aug-2018 5:53pm EDT
Partly cloudy
Partly cloudy
 Wind from NW
Wind: NW 12 mph , 19 km/h
Temperature: 84°F , 29°C
Dew Point: 52°F , 11°C
Humidity: 33%
Barometer: 30.00 inHg , 1015.9 hPa
Clouds: Partly cloudy
Visibility: 10 miles , 16 km
Cloud details: Few Clouds 1000 ft
Partly cloudy 3000 ft
2018/08/18 21:53 KSJC 182153Z 32010KT 10SM FEW010 SCT030 29/11 A3000 RMK AO2 SLP158 FU FEW010 FU SCT030 T02940106
KNUQ - Moffett Nas/Mtn, California, USA
Distance from station: N 9mi, 14km
Updated: Sat, 18-Aug-2018 5:56pm EDT
Clear
Clear
 Wind from N
Wind: N 10 mph , 17 km/h
Temperature: 81°F , 27°C
Dew Point: 54°F , 12°C
Humidity: 39%
Barometer: 30.01 inHg , 1016.3 hPa
Clouds: Clear
Visibility: 10 miles , 16 km
2018/08/18 21:56 KNUQ 182156Z 35009KT 10SM CLR 27/12 A3001 RMK AO2 SLP164 T02720122 $
 
KPAO - Palo Alto, California, USA
Distance from station: NNW 14mi, 23km
Updated: Sat, 18-Aug-2018 5:47pm EDT
Clear
Clear
 Wind from NW
Wind: NW 14 mph , 22 km/h
Temperature: 81°F , 27°C
Heat Index: 81°F , 27°C
Dew Point: 59°F , 15°C
Humidity: 48%
Barometer: 30.02 inHg , 1016.6 hPa
Clouds: Clear
Visibility: 10 miles , 16 km
2018/08/18 21:47 KPAO 182147Z 32012KT 10SM SKC 27/15 A3002
KRHV - San Jose/Reid, California, USA
Distance from station: ENE 12mi, 19km
Updated: Sat, 18-Aug-2018 5:50pm EDT
Clear
Clear
 Wind from NW
Wind: NW 8 mph , 13 km/h
Temperature: 91°F , 33°C
Dew Point: 54°F , 12°C
Humidity: 28%
Barometer: 29.98 inHg , 1015.2 hPa
Clouds: Clear
Visibility: 10 miles , 16 km
2018/08/18 21:50 KRHV 182150Z 32007KT 10SM SKC 33/12 A2998
 
KOAK - Oakland, California, USA
Distance from station: NNW 31mi, 50km
Updated: Sat, 18-Aug-2018 5:53pm EDT
Clear
Clear
 Wind from WNW
Wind: WNW 15 mph , 24 km/h
Temperature: 73°F , 23°C
Dew Point: 55°F , 13°C
Humidity: 53%
Barometer: 30.02 inHg , 1016.6 hPa
Clouds: Clear
Visibility: 10 miles , 16 km
2018/08/18 21:53 KOAK 182153Z 29013KT 10SM CLR 23/13 A3002 RMK AO2 SLP165 T02280133
KSQL - San Carlos Airpo, California, USA
Distance from station: NW 21mi, 34km
Updated: Sat, 18-Aug-2018 5:55pm EDT
Clear
Clear
 Wind from N
Wind: N 10 mph , 17 km/h
Temperature: 77°F , 25°C
Dew Point: 57°F , 14°C
Humidity: 51%
Barometer: 30.01 inHg , 1016.3 hPa
Clouds: Clear
Visibility: 10 miles , 16 km
2018/08/18 21:55 KSQL 182155Z 010009KT 10SM SKC 25/14 A3001
 
KSFO - San Francisco, California, USA
Distance from station: NW 30mi, 49km
Updated: Sat, 18-Aug-2018 5:56pm EDT
Few Clouds
Few Clouds
 Wind from WNW
Wind: WNW 21 mph , 33 km/h
Temperature: 70°F , 21°C
Dew Point: 54°F , 12°C
Humidity: 57%
Barometer: 30.01 inHg , 1016.3 hPa
Clouds: Few Clouds
Visibility: 10 miles , 16 km
Cloud details: Few Clouds 700 ft
2018/08/18 21:56 KSFO 182156Z 30018KT 10SM FEW007 21/12 A3001 RMK AO2 SLP162 T02110122
KE16 - San Martin, California, USA
Distance from station: ESE 27mi, 43km
Updated: Sat, 18-Aug-2018 5:10pm EDT
Clear
Clear
 Wind from calm
Wind: Calm
Temperature: 95°F , 35°C
Dew Point: 43°F , 6°C
Humidity: 16%
Barometer: 30.01 inHg , 1016.3 hPa
Clouds: Clear
Visibility: 10 miles , 16 km
2018/08/18 21:10 KE16 182110Z AUTO 00000KT 10SM CLR 35/06 A3001 RMK AO2
 
KWVI - Watsonville, California, USA
Distance from station: SSE 27mi, 44km
Updated: Sat, 18-Aug-2018 5:53pm EDT
Clear
Clear
 Wind from SW
Wind: SW 10 mph , 17 km/h
Temperature: 68°F , 20°C
Dew Point: 55°F , 13°C
Humidity: 64%
Barometer: 30.05 inHg , 1017.6 hPa
Clouds: Clear
Visibility: 10 miles , 16 km
2018/08/18 21:53 KWVI 182153Z AUTO 22009KT 10SM CLR 20/13 A3005 RMK AO2 SLP177 T02000128
KHAF - Half Moon Bay, California, USA
Distance from station: WNW 31mi, 50km
Updated: Sat, 18-Aug-2018 6:00pm EDT
Mostly cloudy
Mostly cloudy
 Wind from WSW
Wind: WSW 7 mph , 11 km/h
Temperature: 61°F , 16°C
Dew Point: 57°F , 14°C
Humidity: 88%
Barometer: 30.07 inHg , 1018.3 hPa
Clouds: Mostly cloudy
Visibility: 7 miles , 11 km
Cloud details: Mostly cloudy 600 ft
2018/08/18 22:00 KHAF 182200Z AUTO 25006KT 7SM BKN006 16/14 A3007 RMK AO2
 
KHWD - Hayward, California, USA
Distance from station: N 28mi, 44km
Updated: Sat, 18-Aug-2018 5:54pm EDT
Clear
Clear
 Wind from W
Wind: W 12 mph , 19 km/h
Temperature: 79°F , 26°C
Dew Point: 57°F , 14°C
Humidity: 48%
Barometer: 30.01 inHg , 1016.3 hPa
Clouds: Clear
Visibility: 10 miles , 16 km
2018/08/18 21:54 KHWD 182154Z 28010KT 10SM CLR 26/14 A3001 RMK AO2 SLP171 T02560144
KLVK - Livermore, California, USA
Distance from station: NNE 31mi, 51km
Updated: Sat, 18-Aug-2018 5:53pm EDT
Clear
Clear
 Wind from W
Wind: W 12 mph , 19 km/h
Temperature: 99°F , 37°C
Dew Point: 43°F , 6°C
Humidity: 15%
Barometer: 29.97 inHg , 1014.9 hPa
Clouds: Clear
Visibility: 8 miles , 13 km
2018/08/18 21:53 KLVK 182153Z 28010KT 8SM CLR 37/06 A2997 RMK AO2 SLP146 T03720056